createdAt,value
2022-08-10T00:02:24.061Z,99.90
2022-08-10T00:05:28.932Z,99.90
2022-08-10T00:08:47.296Z,99.90
2022-08-10T00:11:52.224Z,99.90
2022-08-10T00:14:55.555Z,99.90
2022-08-10T00:17:59.013Z,99.90
2022-08-10T00:21:02.485Z,99.90
2022-08-10T00:24:06.158Z,99.90
2022-08-10T00:27:58.541Z,99.90
2022-08-10T00:30:35.429Z,99.90
2022-08-10T00:33:39.027Z,99.90
2022-08-10T00:36:42.453Z,99.90
2022-08-10T00:39:46.579Z,99.90
2022-08-10T00:42:51.349Z,99.90
2022-08-10T00:45:59.274Z,99.90
2022-08-10T00:49:03.950Z,99.90
2022-08-10T00:52:08.307Z,99.90
2022-08-10T00:55:11.927Z,99.90
2022-08-10T00:58:17.115Z,99.90
2022-08-10T01:02:07.365Z,99.90
2022-08-10T01:05:00.031Z,99.90
2022-08-10T01:08:18.943Z,99.90
2022-08-10T01:11:42.326Z,99.90
2022-08-10T01:15:05.089Z,99.90
2022-08-10T01:18:14.538Z,99.90
2022-08-10T01:21:56.939Z,99.90
2022-08-10T01:25:29.818Z,99.90
2022-08-10T01:28:42.430Z,99.90
2022-08-10T01:31:52.946Z,99.90
2022-08-10T01:34:57.853Z,99.90
2022-08-10T01:38:10.138Z,99.90
2022-08-10T01:41:19.847Z,99.90
2022-08-10T01:44:31.331Z,99.90
2022-08-10T01:47:57.756Z,99.90
2022-08-10T01:51:14.195Z,99.90
2022-08-10T01:54:22.756Z,99.90
2022-08-10T01:57:28.965Z,99.90
2022-08-10T02:00:34.899Z,99.90
2022-08-10T02:04:05.426Z,99.90
2022-08-10T02:07:06.847Z,99.90
2022-08-10T02:10:14.041Z,99.90
2022-08-10T02:13:19.382Z,99.90
2022-08-10T02:16:24.818Z,99.90
2022-08-10T02:19:31.021Z,99.90
2022-08-10T02:22:39.001Z,99.90
2022-08-10T02:25:44.138Z,99.90
2022-08-10T02:28:47.966Z,99.90
2022-08-10T02:31:52.298Z,99.90
2022-08-10T02:35:00.128Z,99.90
2022-08-10T02:38:09.280Z,99.90
2022-08-10T02:45:01.161Z,99.90
2022-08-10T02:45:18.529Z,99.90
2022-08-10T02:48:20.522Z,99.90
2022-08-10T02:54:56.510Z,99.90
2022-08-10T02:58:16.720Z,99.90
2022-08-10T03:01:25.894Z,99.90
2022-08-10T03:04:56.203Z,99.90
2022-08-10T03:08:04.510Z,99.90
2022-08-10T03:11:08.935Z,99.90
2022-08-10T03:14:13.241Z,99.90
2022-08-10T03:17:18.260Z,99.90
2022-08-10T03:20:38.433Z,99.90
2022-08-10T03:30:28.641Z,99.90
2022-08-10T03:33:18.387Z,99.90
2022-08-10T03:42:52.875Z,99.90
2022-08-10T03:45:59.146Z,99.90
2022-08-10T03:49:04.138Z,99.90
2022-08-10T03:56:28.037Z,99.90
2022-08-10T03:58:36.999Z,99.90
2022-08-10T04:02:43.269Z,99.90
2022-08-10T04:05:04.646Z,99.90
2022-08-10T04:08:08.610Z,99.90
2022-08-10T04:11:13.957Z,99.90
2022-08-10T04:14:48.834Z,99.90
2022-08-10T04:17:59.366Z,99.90
2022-08-10T04:21:10.010Z,99.90
2022-08-10T04:24:24.806Z,99.90
2022-08-10T04:27:34.891Z,99.90
2022-08-10T04:30:39.307Z,99.90
2022-08-10T04:33:50.568Z,99.90
2022-08-10T04:36:55.336Z,99.90
2022-08-10T04:39:59.172Z,99.90
2022-08-10T04:43:12.737Z,99.90
2022-08-10T04:49:54.920Z,99.90
2022-08-10T04:53:00.400Z,99.90
2022-08-10T04:56:03.775Z,99.90
2022-08-10T04:59:10.278Z,99.90
2022-08-10T05:02:29.700Z,99.90
2022-08-10T05:05:35.235Z,99.90
2022-08-10T05:08:38.577Z,99.90
2022-08-10T05:11:41.931Z,99.90
2022-08-10T05:18:06.051Z,99.90
2022-08-10T05:24:36.840Z,99.90
2022-08-10T05:27:41.018Z,99.90
2022-08-10T05:33:49.537Z,99.90
2022-08-10T05:36:53.189Z,99.90
2022-08-10T05:39:57.305Z,99.90
2022-08-10T05:43:00.795Z,99.90
2022-08-10T05:49:24.059Z,99.90
2022-08-10T05:55:32.280Z,99.90
2022-08-10T05:58:36.637Z,99.90
2022-08-10T06:01:45.298Z,99.90
2022-08-10T06:05:10.987Z,99.90
2022-08-10T06:08:17.657Z,99.90
2022-08-10T06:12:27.478Z,99.90
2022-08-10T06:15:06.028Z,99.90
2022-08-10T06:18:16.457Z,99.90
2022-08-10T06:24:30.665Z,99.90
2022-08-10T06:27:36.048Z,99.90
2022-08-10T06:30:41.106Z,99.90
2022-08-10T06:49:45.092Z,99.90
2022-08-10T07:09:31.950Z,99.90
2022-08-10T08:16:14.504Z,16.60
2022-08-10T08:31:33.745Z,1.00
2022-08-10T09:04:19.863Z,1.00
2022-08-10T09:13:43.405Z,1.00
2022-08-10T09:20:50.410Z,1.00
2022-08-10T09:24:05.879Z,1.00
2022-08-10T09:27:16.316Z,1.00
2022-08-10T09:30:29.208Z,1.00
2022-08-10T09:36:24.399Z,1.00
2022-08-10T09:37:21.417Z,1.00
2022-08-10T09:40:59.376Z,1.00
2022-08-10T09:44:01.592Z,1.00
2022-08-10T09:48:01.812Z,1.00
2022-08-10T09:51:41.770Z,1.00
2022-08-10T09:54:35.960Z,1.00
2022-08-10T09:57:57.630Z,1.00
2022-08-10T10:01:08.313Z,1.00
2022-08-10T10:04:42.120Z,1.00
2022-08-10T10:07:53.909Z,1.00
2022-08-10T10:11:08.728Z,1.00
2022-08-10T10:14:21.870Z,1.00
2022-08-10T10:17:36.155Z,1.00
2022-08-10T10:20:46.004Z,1.00
2022-08-10T10:24:20.324Z,1.00
2022-08-10T10:27:38.259Z,1.00
2022-08-10T10:30:53.518Z,1.00
2022-08-10T10:34:09.931Z,1.00
2022-08-10T10:37:14.928Z,1.00
2022-08-10T10:40:22.436Z,1.00
2022-08-10T10:43:40.241Z,1.00
2022-08-10T10:46:58.237Z,1.00
2022-08-10T10:50:08.014Z,1.00
2022-08-10T10:53:23.880Z,1.00
2022-08-10T10:56:47.941Z,1.00
2022-08-10T11:00:02.099Z,1.00
2022-08-10T11:03:24.908Z,1.00
2022-08-10T11:06:45.756Z,1.00
2022-08-10T11:10:03.616Z,1.00
2022-08-10T11:14:24.501Z,1.00
2022-08-10T11:17:00.234Z,1.00
2022-08-10T11:20:14.115Z,1.00
2022-08-10T11:23:27.394Z,1.00
2022-08-10T11:26:37.773Z,1.00
2022-08-10T11:29:51.264Z,1.00
2022-08-10T11:33:12.580Z,1.00
2022-08-10T11:36:24.472Z,1.00
2022-08-10T11:39:38.016Z,1.00
2022-08-10T11:43:07.158Z,1.00
2022-08-10T11:46:28.518Z,1.00
2022-08-10T11:49:37.105Z,1.00
2022-08-10T11:52:47.450Z,1.00
2022-08-10T11:55:58.187Z,1.00
2022-08-10T11:59:19.012Z,1.00
2022-08-10T12:02:26.624Z,1.00
2022-08-10T12:05:53.767Z,1.00
2022-08-10T12:10:10.884Z,1.00
2022-08-10T12:12:24.683Z,1.00
2022-08-10T12:15:35.665Z,1.00
2022-08-10T12:18:48.070Z,1.00
2022-08-10T12:21:59.108Z,1.00
2022-08-10T12:25:11.685Z,1.00
2022-08-10T12:28:50.545Z,1.00
2022-08-10T12:32:00.627Z,1.00
2022-08-10T12:35:21.786Z,1.00
2022-08-10T12:38:35.718Z,1.00
2022-08-10T12:41:45.694Z,1.00
2022-08-10T12:44:55.394Z,1.00
2022-08-10T12:48:00.991Z,1.00
2022-08-10T12:51:11.895Z,1.00
2022-08-10T12:54:31.387Z,1.00
2022-08-10T12:57:38.308Z,1.00
2022-08-10T13:01:05.744Z,1.00
2022-08-10T13:04:22.554Z,1.00
2022-08-10T13:08:24.676Z,1.00
2022-08-10T13:10:57.857Z,1.00
2022-08-10T13:14:08.043Z,1.00
2022-08-10T13:17:12.765Z,1.00
2022-08-10T13:20:20.934Z,1.00
2022-08-10T13:23:27.910Z,1.00
2022-08-10T13:26:33.020Z,1.00
2022-08-10T13:29:40.400Z,1.00
2022-08-10T13:32:52.303Z,1.00
2022-08-10T13:35:58.907Z,1.00
2022-08-10T13:39:08.427Z,1.00
2022-08-10T13:42:14.606Z,1.00
2022-08-10T13:45:23.052Z,1.00
2022-08-10T13:48:31.027Z,1.00
2022-08-10T13:51:54.419Z,1.00
2022-08-10T13:55:03.321Z,1.00
2022-08-10T13:58:08.017Z,1.00
2022-08-10T14:01:13.866Z,1.00
2022-08-10T14:04:18.679Z,1.00
2022-08-10T14:07:23.296Z,1.00
2022-08-10T14:11:09.018Z,1.00
2022-08-10T14:13:59.906Z,1.00
2022-08-10T14:17:04.444Z,1.00
2022-08-10T14:20:14.069Z,1.00
2022-08-10T14:23:20.240Z,1.00
2022-08-10T14:26:29.406Z,1.00
2022-08-10T14:29:40.662Z,1.00
2022-08-10T14:32:47.403Z,1.00
2022-08-10T14:36:21.464Z,1.00
2022-08-10T14:39:23.425Z,1.00
2022-08-10T14:42:32.895Z,1.00
2022-08-10T14:45:37.721Z,1.00
2022-08-10T14:48:43.394Z,1.00
2022-08-10T14:51:47.816Z,1.00
2022-08-10T14:54:54.877Z,1.00
2022-08-10T14:58:19.466Z,1.00
2022-08-10T15:01:24.471Z,1.00
2022-08-10T15:04:29.313Z,1.00
2022-08-10T15:07:34.443Z,1.00
2022-08-10T15:10:39.143Z,1.00
2022-08-10T15:14:14.917Z,1.00
2022-08-10T15:17:14.085Z,1.00
2022-08-10T15:20:20.666Z,1.00
2022-08-10T15:23:30.723Z,1.00
2022-08-10T15:26:37.438Z,1.00
2022-08-10T15:29:57.614Z,1.00
2022-08-10T15:33:56.887Z,1.00
2022-08-10T15:37:40.536Z,1.00
2022-08-10T15:40:47.492Z,1.00
2022-08-10T15:43:56.355Z,1.00
2022-08-10T15:47:05.527Z,1.00
2022-08-10T15:50:14.989Z,1.00
2022-08-10T15:53:29.077Z,1.00
2022-08-10T15:56:40.022Z,1.00
2022-08-10T15:59:53.601Z,1.00
2022-08-10T16:03:08.356Z,1.00
2022-08-10T16:06:26.227Z,1.00
2022-08-10T16:10:26.232Z,1.00
2022-08-10T16:13:00.976Z,1.00
2022-08-10T16:16:10.606Z,1.00
2022-08-10T16:19:23.998Z,1.00
2022-08-10T16:22:36.110Z,1.00
2022-08-10T16:25:48.068Z,1.00
2022-08-10T16:29:01.147Z,1.00
2022-08-10T16:32:07.598Z,1.00
2022-08-10T16:35:20.180Z,1.00
2022-08-10T16:38:24.399Z,1.00
2022-08-10T16:42:03.063Z,1.00
2022-08-10T16:44:56.152Z,1.00
2022-08-10T16:48:00.633Z,1.00
2022-08-10T16:51:08.572Z,1.00
2022-08-10T16:54:26.782Z,1.00
2022-08-10T16:57:33.191Z,1.00
2022-08-10T17:00:38.749Z,1.00
2022-08-10T17:04:08.144Z,1.00
2022-08-10T17:07:16.310Z,1.00
2022-08-10T17:10:23.262Z,1.00
2022-08-10T17:13:29.551Z,1.00
2022-08-10T17:16:36.939Z,1.00
2022-08-10T17:19:45.046Z,1.00
2022-08-10T17:22:54.867Z,1.00
2022-08-10T17:26:02.844Z,1.00
2022-08-10T17:29:53.724Z,1.00
2022-08-10T17:32:44.800Z,1.00
2022-08-10T17:35:51.530Z,1.00
2022-08-10T17:38:57.798Z,1.00
2022-08-10T17:42:03.136Z,1.00
2022-08-10T17:45:09.153Z,1.00
2022-08-10T17:48:13.020Z,1.00
2022-08-10T17:51:18.123Z,1.00
2022-08-10T17:54:32.350Z,1.00
2022-08-10T17:57:40.044Z,1.00
2022-08-10T18:00:45.149Z,1.00
2022-08-10T18:03:53.375Z,11.30
2022-08-10T18:07:00.246Z,26.00
2022-08-10T18:10:06.742Z,34.90
2022-08-10T18:13:11.610Z,35.60
2022-08-10T18:16:16.551Z,50.40
2022-08-10T18:19:20.769Z,57.70
2022-08-10T18:22:26.097Z,68.80
2022-08-10T18:25:34.752Z,86.40
2022-08-10T18:28:42.125Z,92.80
2022-08-10T18:31:48.052Z,96.90
2022-08-10T18:34:54.737Z,99.90
2022-08-10T18:38:02.613Z,99.90
2022-08-10T18:41:12.457Z,99.90
2022-08-10T18:44:18.640Z,99.90
2022-08-10T18:47:34.139Z,99.90
2022-08-10T18:50:44.172Z,99.90
2022-08-10T18:53:52.072Z,99.90
2022-08-10T18:56:59.084Z,99.90
2022-08-10T19:00:13.156Z,99.90
2022-08-10T19:03:54.085Z,99.90
2022-08-10T19:07:14.348Z,99.90
2022-08-10T19:10:35.702Z,99.90
2022-08-10T19:13:50.912Z,99.90
2022-08-10T19:17:03.227Z,99.90
2022-08-10T19:20:16.745Z,99.90
2022-08-10T19:23:37.665Z,99.90
2022-08-10T19:26:47.981Z,99.90
2022-08-10T19:30:10.637Z,99.90
2022-08-10T19:33:27.901Z,99.90
2022-08-10T19:36:37.461Z,99.90
2022-08-10T19:39:51.566Z,99.90
2022-08-10T19:43:09.549Z,99.90
2022-08-10T19:46:25.916Z,99.90
2022-08-10T19:49:41.619Z,99.90
2022-08-10T19:52:53.419Z,99.90
2022-08-10T19:56:30.744Z,99.90
2022-08-10T20:00:19.683Z,99.90
2022-08-10T20:03:18.369Z,99.90
2022-08-10T20:06:26.703Z,99.90
2022-08-10T20:09:39.851Z,99.90
2022-08-10T20:12:51.769Z,99.90
2022-08-10T20:16:00.516Z,99.90
2022-08-10T20:19:13.827Z,99.90
2022-08-10T20:22:28.600Z,99.90
2022-08-10T20:25:34.520Z,99.90
2022-08-10T20:28:44.097Z,99.90
2022-08-10T20:31:55.488Z,99.90
2022-08-10T20:35:08.049Z,99.90
2022-08-10T20:38:16.114Z,99.90
2022-08-10T20:41:26.953Z,99.90
2022-08-10T20:44:40.493Z,99.90
2022-08-10T20:47:54.852Z,99.90
2022-08-10T20:51:04.449Z,99.90
2022-08-10T20:54:11.908Z,99.90
2022-08-10T20:57:54.075Z,99.90
2022-08-10T21:01:00.691Z,99.90
2022-08-10T21:04:13.464Z,99.90
2022-08-10T21:08:01.862Z,99.90
2022-08-10T21:11:15.616Z,99.90
2022-08-10T21:14:36.773Z,99.90
2022-08-10T21:17:52.456Z,99.90
2022-08-10T21:21:08.552Z,99.90
2022-08-10T21:24:22.728Z,99.90
2022-08-10T21:28:03.466Z,99.90
2022-08-10T21:31:25.382Z,99.90
2022-08-10T21:34:41.034Z,99.90
2022-08-10T21:38:04.093Z,99.90
2022-08-10T21:41:56.687Z,99.90
2022-08-10T21:45:59.102Z,99.90
2022-08-10T21:49:22.742Z,99.90
2022-08-10T21:52:53.517Z,99.90
2022-08-10T21:56:22.074Z,99.90
2022-08-10T21:59:56.040Z,99.90
2022-08-10T22:03:19.909Z,99.90
2022-08-10T22:06:52.234Z,99.90
2022-08-10T22:10:15.084Z,99.90
2022-08-10T22:13:38.078Z,99.90
2022-08-10T22:18:03.321Z,99.90
2022-08-10T22:20:52.852Z,99.90
2022-08-10T22:24:27.852Z,99.90
2022-08-10T22:27:55.146Z,99.90
2022-08-10T22:31:33.326Z,99.90
2022-08-10T22:35:22.174Z,99.90
2022-08-10T22:38:58.804Z,99.90
2022-08-10T22:42:31.305Z,99.90
2022-08-10T22:46:18.718Z,99.90
2022-08-10T22:49:22.720Z,99.90
2022-08-10T22:52:57.253Z,99.90
2022-08-10T22:56:15.216Z,99.90
2022-08-10T22:59:28.208Z,99.90
2022-08-10T23:02:34.904Z,99.90
2022-08-10T23:05:40.729Z,99.90
2022-08-10T23:08:50.488Z,99.90
2022-08-10T23:11:57.677Z,99.90
2022-08-10T23:15:24.425Z,99.90
2022-08-10T23:18:51.629Z,99.90
2022-08-10T23:22:04.140Z,99.90
2022-08-10T23:25:13.009Z,99.90
2022-08-10T23:28:19.871Z,99.90
2022-08-10T23:32:00.753Z,99.90
2022-08-10T23:36:27.798Z,99.90
2022-08-10T23:38:36.915Z,99.90
2022-08-10T23:41:42.468Z,99.90
2022-08-10T23:44:53.269Z,99.90
2022-08-10T23:48:00.242Z,99.90
2022-08-10T23:51:16.793Z,99.90
2022-08-10T23:54:22.173Z,99.90
2022-08-10T23:57:29.057Z,99.90
